Time;durP1;ratioP1;P1;durP2;ratioP2;P2;SDS_P1;SDS_P2;PMS_P1;PMS_P2;Temp;Humidity;BMP_temperature;BMP_pressure;BME280_temperature;BME280_humidity;BME280_pressure;Samples;Min_cycle;Max_cycle;Signal;HPM_P1;HPM_P2
2021/05/27 00:01:59;;;;;;;3.07;2.30;;;23.10;49.90;;;;;;5025595;28;20185;-81
2021/05/27 00:04:25;;;;;;;3.40;2.20;;;23.10;49.90;;;;;;5009778;28;20207;-81
2021/05/27 00:07:03;;;;;;;3.93;2.30;;;23.10;49.90;;;;;;5026396;28;20242;-81
2021/05/27 00:09:28;;;;;;;2.60;2.00;;;23.10;49.90;;;;;;5009989;28;20183;-81
2021/05/27 00:11:55;;;;;;;2.10;1.70;;;23.10;49.90;;;;;;5026287;28;20987;-81
2021/05/27 00:14:21;;;;;;;2.60;1.70;;;23.10;49.90;;;;;;5010202;28;20187;-81
2021/05/27 00:16:47;;;;;;;2.73;2.30;;;23.10;50.00;;;;;;5027851;28;20427;-81
2021/05/27 00:19:13;;;;;;;2.90;2.10;;;23.10;49.90;;;;;;5027945;28;20426;-81
2021/05/27 00:21:41;;;;;;;3.03;2.00;;;23.10;49.90;;;;;;5026838;28;20443;-81
2021/05/27 00:24:07;;;;;;;2.67;2.07;;;23.10;49.90;;;;;;5027262;28;20619;-81
2021/05/27 00:26:33;;;;;;;3.43;2.30;;;23.10;49.90;;;;;;5009299;28;20431;-81
2021/05/27 00:29:02;;;;;;;2.80;2.00;;;23.10;49.90;;;;;;5027469;28;20869;-81
2021/05/27 00:31:28;;;;;;;2.77;2.00;;;23.10;49.90;;;;;;5009563;28;20576;-81
2021/05/27 00:33:53;;;;;;;2.70;2.10;;;23.10;49.90;;;;;;5027950;28;20427;-81
2021/05/27 00:36:19;;;;;;;2.90;2.17;;;23.10;50.00;;;;;;5024437;28;20180;-81
2021/05/27 00:38:45;;;;;;;2.10;1.90;;;23.10;50.00;;;;;;5008291;28;20253;-81
2021/05/27 00:41:10;;;;;;;3.33;2.10;;;23.10;50.00;;;;;;4990868;28;20215;-80
2021/05/27 00:43:36;;;;;;;3.63;2.17;;;23.10;49.90;;;;;;4996767;28;20574;-81
2021/05/27 00:46:02;;;;;;;3.13;2.27;;;23.00;49.80;;;;;;4986721;28;20193;-81
2021/05/27 00:51:12;;;;;;;2.73;2.07;;;23.00;49.80;;;;;;5011069;28;20224;-80
2021/05/27 00:53:37;;;;;;;2.90;2.17;;;23.00;49.90;;;;;;5009421;28;20484;-81
2021/05/27 00:56:04;;;;;;;3.00;2.30;;;23.00;49.90;;;;;;5006794;28;20193;-81
2021/05/27 00:58:30;;;;;;;2.87;2.23;;;23.00;49.90;;;;;;5007590;28;20184;-80
2021/05/27 01:00:56;;;;;;;2.60;1.90;;;23.00;49.90;;;;;;4990983;28;20419;-81
2021/05/27 01:03:22;;;;;;;2.43;2.00;;;22.90;49.90;;;;;;5005641;28;20428;-80
2021/05/27 01:05:48;;;;;;;2.77;2.00;;;22.90;49.90;;;;;;5009597;28;20515;-81
2021/05/27 01:08:14;;;;;;;2.27;1.73;;;23.00;50.00;;;;;;4994359;28;20215;-81
2021/05/27 01:10:40;;;;;;;2.33;1.90;;;22.90;49.90;;;;;;5012549;28;20173;-81
2021/05/27 01:13:06;;;;;;;3.17;1.90;;;22.90;49.90;;;;;;5017355;28;20499;-80
2021/05/27 01:15:34;;;;;;;2.73;2.17;;;22.90;49.90;;;;;;5004772;28;20212;-81
2021/05/27 01:18:21;;;;;;;2.57;2.33;;;22.90;50.00;;;;;;5010708;28;20191;-80
2021/05/27 01:20:53;;;;;;;2.53;1.83;;;22.90;49.90;;;;;;5014590;28;20450;-81
2021/05/27 01:23:20;;;;;;;2.63;1.77;;;22.90;50.00;;;;;;5019830;28;20495;-80
2021/05/27 01:25:48;;;;;;;3.03;2.20;;;22.90;50.00;;;;;;5010866;28;20450;-81
2021/05/27 01:28:15;;;;;;;3.03;1.90;;;22.90;50.00;;;;;;4994791;28;20423;-81
2021/05/27 01:30:42;;;;;;;2.97;2.20;;;22.90;50.10;;;;;;4993621;28;20455;-81
2021/05/27 01:33:12;;;;;;;3.00;2.00;;;22.90;50.00;;;;;;4993815;28;20431;-81
2021/05/27 01:35:38;;;;;;;2.03;1.80;;;22.90;50.00;;;;;;4993527;28;20451;-81
2021/05/27 01:38:15;;;;;;;3.13;1.60;;;22.90;50.10;;;;;;4994015;28;20416;-81
2021/05/27 01:40:41;;;;;;;2.53;1.70;;;22.90;50.60;;;;;;4994175;28;20419;-81
2021/05/27 01:43:08;;;;;;;3.50;1.93;;;22.80;50.00;;;;;;4992823;28;20416;-80
2021/05/27 01:45:34;;;;;;;1.80;1.40;;;22.80;50.00;;;;;;4993593;28;20424;-81
2021/05/27 01:48:00;;;;;;;2.50;1.80;;;22.80;50.00;;;;;;4993634;28;20523;-81
2021/05/27 01:50:27;;;;;;;2.23;1.73;;;22.80;50.10;;;;;;5009473;28;20412;-81
2021/05/27 01:52:58;;;;;;;2.87;2.10;;;22.80;50.10;;;;;;5010815;28;20458;-81
2021/05/27 01:55:27;;;;;;;2.80;2.10;;;22.80;50.10;;;;;;4994020;28;20409;-81
2021/05/27 01:57:55;;;;;;;2.67;1.80;;;22.80;50.10;;;;;;5010862;28;20480;-81
2021/05/27 02:00:21;;;;;;;2.30;1.90;;;22.80;50.10;;;;;;4977526;28;20424;-81
2021/05/27 02:02:46;;;;;;;2.67;2.30;;;22.80;50.10;;;;;;5010560;28;20417;-81
2021/05/27 02:05:13;;;;;;;3.00;2.13;;;22.80;50.20;;;;;;4992305;28;20184;-81
2021/05/27 02:07:39;;;;;;;3.17;2.10;;;22.80;50.10;;;;;;4993469;28;20196;-81
2021/05/27 02:10:05;;;;;;;4.43;1.97;;;22.80;50.20;;;;;;4993525;28;20487;-81
2021/05/27 02:12:31;;;;;;;2.27;1.83;;;22.80;50.20;;;;;;5010372;28;20467;-81
2021/05/27 02:14:57;;;;;;;2.77;2.20;;;22.80;50.20;;;;;;5010496;28;20416;-81
2021/05/27 02:17:23;;;;;;;2.57;1.80;;;22.80;50.20;;;;;;5012034;28;20188;-81
2021/05/27 02:19:49;;;;;;;2.53;1.80;;;22.80;50.20;;;;;;4993901;28;20240;-81
2021/05/27 02:22:14;;;;;;;2.00;1.50;;;22.80;50.20;;;;;;4993698;28;20228;-81
2021/05/27 02:24:40;;;;;;;2.80;2.10;;;22.80;50.20;;;;;;5011210;28;20196;-81
2021/05/27 02:27:06;;;;;;;4.10;2.00;;;22.80;50.20;;;;;;5011259;28;20177;-81
2021/05/27 02:29:34;;;;;;;2.43;1.80;;;22.80;50.80;;;;;;5010055;28;20429;-81
2021/05/27 02:32:00;;;;;;;2.10;1.63;;;22.80;50.20;;;;;;5010965;28;20196;-81
2021/05/27 02:34:29;;;;;;;2.70;1.60;;;22.80;50.20;;;;;;5011081;28;20420;-81
2021/05/27 02:36:54;;;;;;;1.77;1.50;;;22.80;50.20;;;;;;4993696;28;20184;-81
2021/05/27 02:39:20;;;;;;;2.77;2.43;;;22.80;50.20;;;;;;4993957;28;20416;-80
2021/05/27 02:41:46;;;;;;;2.40;1.60;;;22.80;50.20;;;;;;5010737;28;20236;-81
2021/05/27 02:44:12;;;;;;;3.90;2.20;;;22.80;50.20;;;;;;5010761;28;20266;-80
2021/05/27 02:46:37;;;;;;;2.50;1.80;;;22.80;50.20;;;;;;4993401;28;20420;-81
2021/05/27 02:49:03;;;;;;;2.23;1.50;;;22.70;50.20;;;;;;5011129;28;20177;-81
2021/05/27 02:51:29;;;;;;;2.50;1.50;;;22.70;50.20;;;;;;5010430;28;20204;-81
2021/05/27 02:53:55;;;;;;;2.13;1.60;;;22.80;50.30;;;;;;4993083;28;20420;-81
2021/05/27 02:56:21;;;;;;;3.10;1.60;;;22.70;50.20;;;;;;5010587;28;20180;-81
2021/05/27 02:58:46;;;;;;;3.00;2.07;;;22.70;50.20;;;;;;5010433;28;20204;-81
2021/05/27 03:01:12;;;;;;;1.90;1.67;;;22.70;50.20;;;;;;5010252;28;20244;-81
2021/05/27 03:03:38;;;;;;;2.20;1.90;;;22.70;50.30;;;;;;5010696;28;20563;-81
2021/05/27 03:06:04;;;;;;;1.93;1.50;;;22.70;50.30;;;;;;5009977;28;20231;-81
2021/05/27 03:08:30;;;;;;;1.50;1.20;;;22.80;50.30;;;;;;5009983;28;20224;-81
2021/05/27 03:10:56;;;;;;;3.33;2.00;;;22.80;50.30;;;;;;5009685;28;20460;-81
2021/05/27 03:13:22;;;;;;;2.40;1.70;;;22.70;50.20;;;;;;5010729;28;20416;-81
2021/05/27 03:15:48;;;;;;;2.83;1.90;;;22.70;50.20;;;;;;4993011;28;20263;-81
2021/05/27 03:18:36;;;;;;;2.43;1.50;;;22.70;50.20;;;;;;4994212;28;20177;-81
2021/05/27 03:21:02;;;;;;;2.63;1.60;;;22.70;50.30;;;;;;5009573;28;20424;-81
2021/05/27 03:23:29;;;;;;;2.30;1.80;;;22.70;50.30;;;;;;4992564;28;20424;-81
2021/05/27 03:25:55;;;;;;;2.23;1.83;;;22.70;50.30;;;;;;5008372;28;20479;-81
2021/05/27 03:28:23;;;;;;;2.30;1.87;;;22.70;50.30;;;;;;4992200;28;20424;-81
2021/05/27 03:30:48;;;;;;;2.43;1.73;;;22.70;50.30;;;;;;5008493;28;20184;-81
2021/05/27 03:33:14;;;;;;;2.30;2.00;;;22.70;50.30;;;;;;4992308;28;20420;-81
2021/05/27 03:35:43;;;;;;;2.63;1.70;;;22.70;50.30;;;;;;4994139;28;20646;-81
2021/05/27 03:38:11;;;;;;;2.23;2.00;;;22.70;50.30;;;;;;5010631;28;20169;-81
2021/05/27 03:40:37;;;;;;;2.10;1.40;;;22.70;50.30;;;;;;5009022;28;20431;-80
2021/05/27 03:43:03;;;;;;;2.40;1.70;;;22.70;50.30;;;;;;5009686;28;20416;-81
2021/05/27 03:45:31;;;;;;;2.27;2.00;;;22.70;50.30;;;;;;5009655;28;20169;-81
2021/05/27 03:47:57;;;;;;;1.93;1.30;;;22.70;50.30;;;;;;5009499;28;20416;-81
2021/05/27 03:50:25;;;;;;;1.90;1.53;;;22.70;50.30;;;;;;5009532;28;20488;-81
2021/05/27 03:52:52;;;;;;;1.70;1.40;;;22.70;50.30;;;;;;4991929;28;20459;-81
2021/05/27 03:55:19;;;;;;;1.83;1.53;;;22.70;50.30;;;;;;5008700;28;20415;-81
2021/05/27 03:57:47;;;;;;;2.07;1.60;;;22.70;50.30;;;;;;5009621;28;20483;-81
2021/05/27 04:03:02;;;;;;;1.80;1.30;;;22.60;50.30;;;;;;5010094;28;20396;-81
2021/05/27 04:08:12;;;;;;;2.60;1.70;;;22.60;50.30;;;;;;4995235;28;20399;-81
2021/05/27 04:10:38;;;;;;;2.70;2.27;;;22.60;50.30;;;;;;4991802;28;20419;-81
2021/05/27 04:13:04;;;;;;;2.10;1.40;;;22.60;50.30;;;;;;5009261;28;20404;-81
2021/05/27 04:15:33;;;;;;;2.57;1.60;;;22.60;50.40;;;;;;5012238;28;20243;-81
2021/05/27 04:18:16;;;;;;;1.60;1.43;;;22.60;50.30;;;;;;5029484;28;20251;-81
2021/05/27 04:20:48;;;;;;;2.90;1.67;;;22.60;50.30;;;;;;5028925;28;20398;-81
2021/05/27 04:23:32;;;;;;;1.70;1.43;;;22.60;50.40;;;;;;5011864;28;20415;-81
2021/05/27 04:26:11;;;;;;;1.87;1.50;;;22.60;50.30;;;;;;5028807;28;20380;-81
2021/05/27 04:28:39;;;;;;;2.13;1.83;;;22.60;50.40;;;;;;5028649;28;20388;-81
2021/05/27 04:33:40;;;;;;;1.60;1.50;;;22.60;50.40;;;;;;5029186;28;20411;-81
2021/05/27 04:36:09;;;;;;;2.10;1.60;;;22.60;50.30;;;;;;5028331;28;20399;-81
2021/05/27 04:38:35;;;;;;;1.93;1.40;;;22.60;50.30;;;;;;5011405;28;20451;-80
2021/05/27 04:41:00;;;;;;;2.23;1.60;;;22.70;50.30;;;;;;5028644;28;20414;-81
2021/05/27 04:43:26;;;;;;;1.53;1.30;;;22.70;50.30;;;;;;5028525;28;20177;-81
2021/05/27 04:45:52;;;;;;;1.60;1.40;;;22.70;50.30;;;;;;5010915;28;20226;-81
2021/05/27 04:48:18;;;;;;;1.70;1.43;;;22.70;50.20;;;;;;5010079;28;20187;-81
2021/05/27 04:50:46;;;;;;;1.77;1.37;;;22.70;50.30;;;;;;5027882;28;20522;-81
2021/05/27 04:53:12;;;;;;;2.00;1.47;;;22.70;50.20;;;;;;5010869;28;20211;-81
2021/05/27 04:55:38;;;;;;;1.80;1.17;;;22.70;50.10;;;;;;5010525;28;20415;-81
2021/05/27 04:58:04;;;;;;;2.10;1.63;;;22.80;50.20;;;;;;5028637;28;20254;-81
2021/05/27 05:00:30;;;;;;;2.10;1.40;;;22.70;50.10;;;;;;5028308;28;20411;-81
2021/05/27 05:02:58;;;;;;;1.43;1.27;;;22.80;50.10;;;;;;5010351;28;20446;-81
2021/05/27 05:05:25;;;;;;;1.63;1.40;;;22.70;50.00;;;;;;5028109;28;20904;-82
2021/05/27 05:07:51;;;;;;;1.60;1.27;;;22.80;50.10;;;;;;4994348;28;20427;-81
2021/05/27 05:10:22;;;;;;;2.63;1.60;;;22.80;50.60;;;;;;5027760;28;20418;-81
2021/05/27 05:12:52;;;;;;;2.00;1.27;;;22.80;50.00;;;;;;5028077;28;20196;-81
2021/05/27 05:15:20;;;;;;;1.80;1.43;;;22.80;50.00;;;;;;5028169;28;20408;-81
2021/05/27 05:17:52;;;;;;;1.60;1.20;;;22.80;50.00;;;;;;5010721;28;20431;-81
2021/05/27 05:20:20;;;;;;;1.63;1.20;;;22.80;49.90;;;;;;5027972;28;20419;-81
2021/05/27 05:22:46;;;;;;;1.30;1.20;;;22.80;49.90;;;;;;5028058;28;20460;-81
2021/05/27 05:25:12;;;;;;;1.50;1.10;;;22.80;49.90;;;;;;5027245;28;20415;-81
2021/05/27 05:27:39;;;;;;;1.83;1.40;;;22.80;49.90;;;;;;5027277;28;20411;-81
2021/05/27 05:30:06;;;;;;;1.50;1.10;;;22.80;49.90;;;;;;5026348;28;20419;-81
2021/05/27 05:32:32;;;;;;;2.03;1.40;;;22.80;49.90;;;;;;5009588;28;20570;-81
2021/05/27 05:34:59;;;;;;;3.27;1.97;;;22.80;49.90;;;;;;4992934;28;20423;-81
2021/05/27 05:37:25;;;;;;;1.50;1.30;;;22.80;49.90;;;;;;5027047;28;20183;-81
2021/05/27 05:39:50;;;;;;;1.60;1.50;;;22.80;49.90;;;;;;5030172;28;20894;-81
2021/05/27 05:42:16;;;;;;;2.00;1.50;;;22.80;49.90;;;;;;5029399;28;20624;-81
2021/05/27 05:44:42;;;;;;;1.57;1.33;;;22.80;49.90;;;;;;5030015;28;20172;-81
2021/05/27 05:47:08;;;;;;;2.23;1.57;;;22.80;49.90;;;;;;5030141;28;20191;-81
2021/05/27 05:49:33;;;;;;;1.93;1.43;;;22.80;49.90;;;;;;5013447;28;20419;-81
2021/05/27 05:51:59;;;;;;;2.17;1.40;;;22.80;49.90;;;;;;5030701;28;20204;-81
2021/05/27 05:54:25;;;;;;;2.10;1.40;;;22.80;49.90;;;;;;5012779;28;20172;-81
2021/05/27 05:56:53;;;;;;;2.40;1.43;;;22.80;49.90;;;;;;5012355;28;20177;-81
2021/05/27 05:59:19;;;;;;;1.30;1.20;;;22.80;49.90;;;;;;5029805;28;20168;-81
2021/05/27 06:01:45;;;;;;;1.43;1.20;;;22.80;49.90;;;;;;5028486;28;20474;-81
2021/05/27 06:04:10;;;;;;;1.90;1.50;;;22.80;49.90;;;;;;5012702;28;20185;-81
2021/05/27 06:06:36;;;;;;;1.90;1.77;;;22.80;49.90;;;;;;5012205;28;20183;-81
2021/05/27 06:09:02;;;;;;;1.60;1.30;;;22.80;49.90;;;;;;5012200;28;20180;-81
2021/05/27 06:11:28;;;;;;;2.03;1.50;;;22.80;49.90;;;;;;5029751;28;20271;-81
2021/05/27 06:13:54;;;;;;;1.70;1.30;;;22.80;49.90;;;;;;5012642;28;20419;-81
2021/05/27 06:16:20;;;;;;;1.57;1.30;;;22.80;49.90;;;;;;5011567;28;20528;-81
2021/05/27 06:18:46;;;;;;;2.00;1.20;;;22.80;49.90;;;;;;5011812;28;20449;-81
2021/05/27 06:21:11;;;;;;;2.17;1.37;;;22.80;49.90;;;;;;5029175;28;20415;-81
2021/05/27 06:23:37;;;;;;;1.40;1.03;;;22.80;49.90;;;;;;5029274;28;20201;-80
2021/05/27 06:26:03;;;;;;;1.70;1.40;;;22.80;49.90;;;;;;5029251;28;20196;-81
2021/05/27 06:28:29;;;;;;;1.50;1.40;;;22.80;49.90;;;;;;5029093;28;20176;-81
2021/05/27 06:30:56;;;;;;;1.60;1.30;;;22.90;50.00;;;;;;4995123;28;20263;-81
2021/05/27 06:33:22;;;;;;;1.67;1.20;;;22.90;50.00;;;;;;4999249;28;20551;-81
2021/05/27 06:35:48;;;;;;;1.23;1.03;;;22.90;50.00;;;;;;5000465;28;20423;-81
2021/05/27 06:38:14;;;;;;;1.70;1.30;;;22.90;50.00;;;;;;5008503;28;20446;-81
2021/05/27 06:40:40;;;;;;;2.03;1.47;;;22.90;50.00;;;;;;5007766;28;20173;-81
2021/05/27 06:43:06;;;;;;;1.40;1.30;;;22.90;50.10;;;;;;5008462;28;20412;-80
2021/05/27 06:45:33;;;;;;;2.00;1.27;;;22.90;50.10;;;;;;4991269;28;20487;-82
2021/05/27 06:47:59;;;;;;;1.70;1.50;;;22.90;50.00;;;;;;4991469;28;20421;-82
2021/05/27 06:50:34;;;;;;;1.57;1.13;;;22.90;50.00;;;;;;5007519;28;20424;-82
2021/05/27 06:53:06;;;;;;;1.50;1.17;;;22.90;50.00;;;;;;4990738;28;20216;-82
2021/05/27 06:55:32;;;;;;;1.93;1.30;;;22.90;49.90;;;;;;5007635;28;20400;-82
2021/05/27 06:57:58;;;;;;;1.40;1.07;;;22.90;49.90;;;;;;5007083;28;20424;-82
2021/05/27 07:00:25;;;;;;;1.33;1.13;;;22.90;50.00;;;;;;5006621;28;20447;-82
2021/05/27 07:02:52;;;;;;;1.80;1.60;;;22.90;50.00;;;;;;4989983;28;20184;-81
2021/05/27 07:05:18;;;;;;;2.10;1.47;;;22.90;50.00;;;;;;5005386;28;20424;-82
2021/05/27 07:07:44;;;;;;;1.80;1.23;;;22.90;49.90;;;;;;4989697;28;20496;-81
2021/05/27 07:10:12;;;;;;;1.53;1.20;;;22.90;50.00;;;;;;4989775;28;20425;-81
2021/05/27 07:12:38;;;;;;;1.20;1.10;;;22.90;49.90;;;;;;4988552;28;20476;-81
2021/05/27 07:15:05;;;;;;;1.90;1.33;;;22.90;49.90;;;;;;5006842;28;20415;-82
2021/05/27 07:17:30;;;;;;;2.20;1.60;;;22.90;49.90;;;;;;5007128;28;20196;-82
2021/05/27 07:19:57;;;;;;;1.30;1.10;;;22.90;49.90;;;;;;4988750;28;20424;-81
2021/05/27 07:22:26;;;;;;;1.43;1.23;;;22.90;49.90;;;;;;5004502;28;20177;-81
2021/05/27 07:24:51;;;;;;;3.70;1.23;;;22.90;49.90;;;;;;4988686;28;20420;-81
2021/05/27 07:27:17;;;;;;;1.53;1.40;;;22.90;50.00;;;;;;4989161;28;20419;-82
2021/05/27 07:29:43;;;;;;;1.97;1.20;;;22.90;50.00;;;;;;4988646;28;20192;-82
2021/05/27 07:32:09;;;;;;;1.77;1.37;;;22.90;50.00;;;;;;5006554;28;20606;-82
2021/05/27 07:34:37;;;;;;;2.23;1.40;;;22.90;50.00;;;;;;4989284;28;20416;-82
2021/05/27 07:37:03;;;;;;;1.20;1.10;;;22.90;50.00;;;;;;4988125;28;20416;-82
2021/05/27 07:39:29;;;;;;;1.77;1.20;;;22.90;50.00;;;;;;4988306;28;20439;-82
2021/05/27 07:41:55;;;;;;;1.87;1.20;;;22.90;50.00;;;;;;5006258;28;20423;-82
2021/05/27 07:44:20;;;;;;;1.30;1.20;;;22.90;50.00;;;;;;4988187;28;20267;-82
2021/05/27 07:46:46;;;;;;;2.27;1.20;;;22.90;50.00;;;;;;5006164;28;20169;-82
2021/05/27 07:49:12;;;;;;;1.33;1.23;;;22.90;50.00;;;;;;5005726;28;20169;-82
2021/05/27 07:51:37;;;;;;;3.30;1.40;;;22.90;50.00;;;;;;5005518;28;20205;-82
2021/05/27 07:54:03;;;;;;;1.33;1.10;;;22.90;50.00;;;;;;5006378;28;20241;-82
2021/05/27 07:56:29;;;;;;;1.70;1.17;;;22.90;50.00;;;;;;5005681;28;20196;-82
2021/05/27 07:58:56;;;;;;;1.30;1.20;;;23.00;50.00;;;;;;4988413;28;20424;-82
2021/05/27 08:01:21;;;;;;;1.67;1.47;;;22.90;50.00;;;;;;5004818;28;20197;-82
2021/05/27 08:03:47;;;;;;;1.47;1.20;;;22.90;50.00;;;;;;4987891;28;20428;-82
2021/05/27 08:06:13;;;;;;;1.77;1.60;;;22.90;50.00;;;;;;4988300;28;20173;-82
2021/05/27 08:08:38;;;;;;;1.73;1.27;;;22.90;50.00;;;;;;5006167;28;20180;-82
2021/05/27 08:11:04;;;;;;;1.73;1.10;;;22.90;50.00;;;;;;5006242;28;20209;-82
2021/05/27 08:13:30;;;;;;;1.73;1.13;;;22.90;50.00;;;;;;4988817;28;20271;-82
2021/05/27 08:15:55;;;;;;;1.30;1.00;;;23.00;50.10;;;;;;4988412;28;20240;-82
2021/05/27 08:18:21;;;;;;;1.23;1.10;;;22.90;50.60;;;;;;5004412;28;20189;-82
2021/05/27 08:20:47;;;;;;;1.80;1.30;;;22.90;50.00;;;;;;4997552;28;20180;-82
2021/05/27 08:23:13;;;;;;;7.10;2.13;;;22.90;50.00;;;;;;5005729;28;20173;-82
2021/05/27 08:25:38;;;;;;;3.40;2.73;;;22.90;50.00;;;;;;5005597;28;20236;-83
2021/05/27 08:28:04;;;;;;;1.97;1.30;;;22.90;50.00;;;;;;5005134;28;20173;-82
2021/05/27 08:30:30;;;;;;;1.80;1.40;;;22.90;50.00;;;;;;5004864;28;20203;-82
2021/05/27 08:32:55;;;;;;;1.40;1.10;;;22.90;50.00;;;;;;4988175;28;20259;-82
2021/05/27 08:35:21;;;;;;;2.10;1.23;;;22.90;50.00;;;;;;5006460;28;20240;-82
2021/05/27 08:37:47;;;;;;;1.70;1.60;;;22.90;50.00;;;;;;4988359;28;20412;-82
2021/05/27 08:40:14;;;;;;;2.60;1.30;;;23.00;50.10;;;;;;5004940;28;20284;-81
2021/05/27 08:42:42;;;;;;;2.13;1.23;;;22.90;50.00;;;;;;5005328;28;20504;-81
2021/05/27 08:45:13;;;;;;;2.73;1.40;;;22.90;50.00;;;;;;4987007;28;20423;-81
2021/05/27 08:47:39;;;;;;;1.40;1.20;;;22.90;50.00;;;;;;5004877;28;20412;-81
2021/05/27 08:50:06;;;;;;;1.77;1.20;;;22.90;50.00;;;;;;5005459;28;20471;-81
2021/05/27 08:52:31;;;;;;;1.50;1.17;;;22.90;50.00;;;;;;4987833;28;20456;-82
2021/05/27 08:54:57;;;;;;;1.30;1.20;;;22.90;50.00;;;;;;4988300;28;20426;-82
2021/05/27 08:57:23;;;;;;;2.07;1.30;;;22.90;50.10;;;;;;4988251;28;20232;-82
2021/05/27 08:59:51;;;;;;;1.10;0.90;;;22.90;50.10;;;;;;5005537;28;20193;-82
2021/05/27 09:02:16;;;;;;;1.57;1.17;;;22.90;50.10;;;;;;4988754;28;20519;-82
2021/05/27 09:04:42;;;;;;;1.67;1.00;;;22.90;50.10;;;;;;5003719;28;20427;-82
2021/05/27 09:07:11;;;;;;;1.50;1.20;;;22.90;50.10;;;;;;5004686;28;20177;-82
2021/05/27 09:09:58;;;;;;;1.43;1.23;;;22.90;50.10;;;;;;4987180;28;20177;-81
2021/05/27 09:12:28;;;;;;;2.40;1.40;;;22.90;50.10;;;;;;5004571;28;20950;-82
2021/05/27 09:14:54;;;;;;;2.00;1.30;;;22.90;50.10;;;;;;5004832;28;20518;-82
2021/05/27 09:17:19;;;;;;;1.77;1.30;;;22.90;50.10;;;;;;5027269;28;20419;-82
2021/05/27 09:20:11;;;;;;;2.20;1.33;;;22.90;50.10;;;;;;5009689;28;20415;-82
2021/05/27 09:22:37;;;;;;;1.30;1.00;;;22.90;50.10;;;;;;5009532;28;20259;-82
2021/05/27 09:25:03;;;;;;;1.40;1.10;;;22.90;50.10;;;;;;5009897;28;20466;-82
2021/05/27 09:27:46;;;;;;;1.60;1.30;;;22.90;50.10;;;;;;5028166;28;20164;-82
2021/05/27 09:30:13;;;;;;;4.10;1.10;;;22.90;50.10;;;;;;5010612;28;20419;-82
2021/05/27 09:32:44;;;;;;;1.40;1.10;;;22.90;50.10;;;;;;5026645;28;20818;-82
2021/05/27 09:35:10;;;;;;;3.00;1.30;;;22.90;50.10;;;;;;5027670;28;20838;-82
2021/05/27 09:37:36;;;;;;;1.10;1.00;;;22.90;50.00;;;;;;5027430;28;20498;-82
2021/05/27 09:40:05;;;;;;;1.30;1.20;;;22.90;50.00;;;;;;5019715;28;20439;-82
2021/05/27 09:42:49;;;;;;;2.07;1.10;;;22.90;50.10;;;;;;5008167;28;20184;-82
2021/05/27 09:45:16;;;;;;;1.47;1.13;;;22.90;50.10;;;;;;5007775;28;20762;-82
2021/05/27 09:47:42;;;;;;;1.30;1.10;;;22.90;50.10;;;;;;5007377;28;20483;-82
2021/05/27 09:50:09;;;;;;;2.10;1.20;;;22.90;50.10;;;;;;5006730;28;20443;-82
2021/05/27 09:52:45;;;;;;;1.23;1.00;;;22.90;50.10;;;;;;5005896;28;20464;-82
2021/05/27 09:55:12;;;;;;;1.27;1.10;;;22.90;50.10;;;;;;5007652;28;20479;-82
2021/05/27 09:57:40;;;;;;;1.80;1.10;;;22.90;50.00;;;;;;5005928;28;20424;-82
2021/05/27 10:00:23;;;;;;;1.37;1.10;;;22.90;50.00;;;;;;4990064;28;20475;-82
2021/05/27 10:02:50;;;;;;;1.20;0.90;;;22.90;50.00;;;;;;5007213;28;20404;-82
2021/05/27 10:05:17;;;;;;;1.37;1.07;;;22.90;50.00;;;;;;5006617;28;20424;-82
2021/05/27 10:07:46;;;;;;;1.40;1.20;;;22.90;50.00;;;;;;5005964;28;20446;-82
2021/05/27 10:10:17;;;;;;;1.57;1.23;;;22.90;49.90;;;;;;5006231;28;20486;-82
2021/05/27 10:12:46;;;;;;;1.00;0.90;;;22.90;49.90;;;;;;4986405;28;20480;-82
2021/05/27 10:15:16;;;;;;;1.07;0.80;;;22.90;49.90;;;;;;4987588;28;20445;-82
2021/05/27 10:17:44;;;;;;;2.20;1.10;;;22.90;49.90;;;;;;4988130;28;20433;-82
2021/05/27 10:20:12;;;;;;;1.40;1.10;;;22.90;49.90;;;;;;4987887;28;20424;-82
2021/05/27 10:22:38;;;;;;;1.57;1.10;;;22.90;49.90;;;;;;4987063;28;20457;-82
2021/05/27 10:25:10;;;;;;;2.60;1.30;;;22.90;49.80;;;;;;4986649;28;20424;-82
2021/05/27 10:27:36;;;;;;;1.47;1.10;;;23.00;49.90;;;;;;4988114;28;20417;-82
2021/05/27 10:30:07;;;;;;;1.67;1.30;;;23.00;49.90;;;;;;4987668;28;20417;-82
2021/05/27 10:32:41;;;;;;;1.40;0.93;;;23.00;49.90;;;;;;4988205;28;20455;-82
2021/05/27 10:35:08;;;;;;;1.10;0.93;;;23.00;49.80;;;;;;4988769;28;20404;-82
2021/05/27 10:37:33;;;;;;;1.10;1.00;;;23.00;49.80;;;;;;4986371;28;20453;-80
2021/05/27 10:40:00;;;;;;;1.30;0.93;;;23.00;49.90;;;;;;4970685;28;20413;-80
2021/05/27 10:42:58;;;;;;;1.20;1.00;;;23.00;49.80;;;;;;4986178;28;20268;-80
2021/05/27 10:45:29;;;;;;;1.13;0.90;;;23.00;49.80;;;;;;4969437;28;20424;-82
2021/05/27 10:48:13;;;;;;;1.30;1.10;;;23.00;49.80;;;;;;4986184;28;20484;-81
2021/05/27 10:50:53;;;;;;;1.57;1.03;;;23.00;49.80;;;;;;4987911;28;20413;-82
2021/05/27 10:53:38;;;;;;;1.43;1.00;;;23.00;49.80;;;;;;4971246;28;20429;-82
2021/05/27 10:56:11;;;;;;;1.33;1.10;;;23.00;49.90;;;;;;4970524;28;20491;-82
2021/05/27 10:58:46;;;;;;;1.33;1.10;;;23.00;49.90;;;;;;4985400;28;20415;-82
2021/05/27 11:01:34;;;;;;;3.33;1.83;;;23.00;49.80;;;;;;4968347;28;20460;-82
2021/05/27 11:04:01;;;;;;;1.30;1.10;;;23.00;49.80;;;;;;4970193;28;20424;-83
2021/05/27 11:06:38;;;;;;;5.43;1.50;;;23.00;49.80;;;;;;4970592;28;20444;-82
2021/05/27 11:09:10;;;;;;;7.80;3.40;;;23.00;49.70;;;;;;4987681;28;20458;-82
2021/05/27 11:11:42;;;;;;;6.23;4.63;;;23.00;49.70;;;;;;4987507;28;20827;-82
2021/05/27 11:14:16;;;;;;;7.50;4.23;;;23.00;49.70;;;;;;4969419;28;20428;-82
2021/05/27 11:17:07;;;;;;;3.20;2.60;;;23.00;49.70;;;;;;4987848;28;20433;-82
2021/05/27 11:19:56;;;;;;;14.17;5.23;;;23.00;49.70;;;;;;4987469;28;20397;-82
2021/05/27 11:22:32;;;;;;;9.43;6.30;;;23.00;49.70;;;;;;4987619;28;20386;-82
2021/05/27 11:25:10;;;;;;;20.73;8.20;;;22.90;49.60;;;;;;4970255;28;20424;-82
2021/05/27 11:27:54;;;;;;;18.67;7.87;;;23.00;49.70;;;;;;4987352;28;20408;-82
2021/05/27 11:30:41;;;;;;;12.33;7.60;;;23.00;49.80;;;;;;4987326;28;20405;-82
2021/05/27 11:33:31;;;;;;;17.00;11.37;;;22.90;49.70;;;;;;4988724;28;20449;-82
2021/05/27 11:36:03;;;;;;;22.17;12.90;;;23.00;49.80;;;;;;4985772;28;20931;-83
2021/05/27 11:38:35;;;;;;;21.83;11.57;;;22.90;49.70;;;;;;4971535;28;20401;-81
2021/05/27 11:41:14;;;;;;;24.80;13.87;;;22.90;49.80;;;;;;4989239;28;20389;-82
2021/05/27 11:43:43;;;;;;;23.60;13.80;;;22.90;49.70;;;;;;4987306;28;20416;-81
2021/05/27 11:46:18;;;;;;;30.93;15.80;;;23.00;49.80;;;;;;4989100;28;20496;-81
2021/05/27 11:51:12;;;;;;;29.43;15.47;;;23.00;49.60;;;;;;4971731;28;20460;-81
2021/05/27 11:53:54;;;;;;;25.23;14.63;;;23.00;49.60;;;;;;4989977;28;20425;-81
2021/05/27 11:56:37;;;;;;;23.80;13.60;;;23.00;49.60;;;;;;4971240;28;20394;-81
2021/05/27 11:59:06;;;;;;;21.70;12.20;;;22.90;49.50;;;;;;4989551;28;20401;-81
2021/05/27 12:01:32;;;;;;;22.03;13.30;;;22.90;49.50;;;;;;4987697;28;20425;-81
2021/05/27 12:04:24;;;;;;;25.03;11.93;;;22.90;49.60;;;;;;4988772;28;20418;-81
2021/05/27 12:07:02;;;;;;;22.83;12.10;;;23.00;49.60;;;;;;4989146;28;20756;-80
2021/05/27 12:09:41;;;;;;;19.07;10.40;;;23.00;49.60;;;;;;4972070;28;20424;-81
2021/05/27 12:12:57;;;;;;;23.53;12.57;;;23.00;49.70;;;;;;4988009;28;20536;-81
2021/05/27 12:15:23;;;;;;;17.77;11.60;;;23.00;49.60;;;;;;4931119;29;20450;-81
2021/05/27 12:17:52;;;;;;;23.17;12.57;;;22.90;49.60;;;;;;4931639;29;20427;-80
2021/05/27 12:20:27;;;;;;;21.73;12.00;;;22.90;49.60;;;;;;4928538;29;20429;-81
2021/05/27 12:23:16;;;;;;;21.23;11.90;;;23.00;49.70;;;;;;4931417;29;20416;-81
2021/05/27 12:25:44;;;;;;;23.13;12.10;;;23.00;49.70;;;;;;4916188;29;20420;-81
2021/05/27 12:28:17;;;;;;;20.03;12.27;;;22.90;49.60;;;;;;4932246;29;20496;-81
2021/05/27 12:30:52;;;;;;;21.40;12.33;;;23.00;49.70;;;;;;4932640;29;20501;-80
2021/05/27 12:33:25;;;;;;;24.07;12.03;;;23.00;49.70;;;;;;4932050;29;20442;-81
2021/05/27 12:35:52;;;;;;;21.13;12.33;;;23.00;49.70;;;;;;4931267;29;20396;-81
2021/05/27 12:38:20;;;;;;;19.73;10.83;;;23.00;49.70;;;;;;4931747;29;20472;-81
2021/05/27 12:40:49;;;;;;;21.57;11.73;;;23.00;49.70;;;;;;4932465;29;20480;-81
2021/05/27 12:43:37;;;;;;;21.00;9.70;;;23.00;49.70;;;;;;4928891;29;20431;-81
2021/05/27 12:46:08;;;;;;;20.80;11.27;;;23.00;49.70;;;;;;4931616;29;20420;-80
2021/05/27 12:48:55;;;;;;;22.00;11.73;;;23.00;49.70;;;;;;4934065;29;20420;-81
2021/05/27 12:51:22;;;;;;;18.50;10.37;;;23.00;49.80;;;;;;4944148;29;20461;-81
2021/05/27 12:53:49;;;;;;;17.07;10.17;;;23.00;49.80;;;;;;4993957;28;20938;-81
2021/05/27 12:56:22;;;;;;;23.53;10.67;;;23.00;49.80;;;;;;4993628;28;20417;-81
2021/05/27 12:58:50;;;;;;;17.87;11.33;;;23.00;49.80;;;;;;4995306;28;20410;-81
2021/05/27 13:01:28;;;;;;;17.57;10.73;;;23.00;49.70;;;;;;4994814;28;20954;-81
2021/05/27 13:03:54;;;;;;;17.77;10.07;;;23.00;49.80;;;;;;4994471;28;20492;-81
2021/05/27 13:06:32;;;;;;;22.33;11.17;;;23.00;49.80;;;;;;4995247;28;20420;-80
2021/05/27 13:09:10;;;;;;;22.80;12.73;;;23.00;49.70;;;;;;4995336;28;20170;-81